sensor_id;sensor_type;location;lat;lon;timestamp;pressure;altitude;pressure_sealevel;temperature
81399;BMP280;70853;50.074;10.224;2024-01-15T00:02:18;97172.63;;;-2.64
81399;BMP280;70853;50.074;10.224;2024-01-15T00:04:44;97171.34;;;-2.54
81399;BMP280;70853;50.074;10.224;2024-01-15T00:07:09;97168.53;;;-2.50
81399;BMP280;70853;50.074;10.224;2024-01-15T00:09:35;97172.50;;;-2.55
81399;BMP280;70853;50.074;10.224;2024-01-15T00:12:01;97164.47;;;-2.51
81399;BMP280;70853;50.074;10.224;2024-01-15T00:14:27;97155.63;;;-2.59
81399;BMP280;70853;50.074;10.224;2024-01-15T00:16:53;97156.56;;;-2.62
81399;BMP280;70853;50.074;10.224;2024-01-15T00:19:23;97156.56;;;-2.62
81399;BMP280;70853;50.074;10.224;2024-01-15T00:21:49;97156.72;;;-2.66
81399;BMP280;70853;50.074;10.224;2024-01-15T00:24:16;97163.06;;;-2.73
81399;BMP280;70853;50.074;10.224;2024-01-15T00:26:41;97154.00;;;-2.83
81399;BMP280;70853;50.074;10.224;2024-01-15T00:29:08;97157.63;;;-2.75
81399;BMP280;70853;50.074;10.224;2024-01-15T00:31:34;97148.00;;;-2.63
81399;BMP280;70853;50.074;10.224;2024-01-15T00:34:00;97148.72;;;-2.88
81399;BMP280;70853;50.074;10.224;2024-01-15T00:36:26;97143.00;;;-2.92
81399;BMP280;70853;50.074;10.224;2024-01-15T00:38:53;97138.66;;;-2.75
81399;BMP280;70853;50.074;10.224;2024-01-15T00:41:18;97145.25;;;-2.80
81399;BMP280;70853;50.074;10.224;2024-01-15T00:43:45;97131.28;;;-2.77
81399;BMP280;70853;50.074;10.224;2024-01-15T00:46:11;97119.16;;;-2.80
81399;BMP280;70853;50.074;10.224;2024-01-15T00:48:37;97123.88;;;-2.84
81399;BMP280;70853;50.074;10.224;2024-01-15T00:51:04;97124.38;;;-2.80
81399;BMP280;70853;50.074;10.224;2024-01-15T00:53:30;97127.44;;;-2.81
81399;BMP280;70853;50.074;10.224;2024-01-15T00:55:56;97128.56;;;-2.88
81399;BMP280;70853;50.074;10.224;2024-01-15T00:58:22;97128.63;;;-2.82
81399;BMP280;70853;50.074;10.224;2024-01-15T01:00:47;97132.47;;;-2.78
81399;BMP280;70853;50.074;10.224;2024-01-15T01:03:13;97123.34;;;-2.88
81399;BMP280;70853;50.074;10.224;2024-01-15T01:05:39;97125.63;;;-2.70
81399;BMP280;70853;50.074;10.224;2024-01-15T01:08:05;97113.63;;;-2.61
81399;BMP280;70853;50.074;10.224;2024-01-15T01:10:30;97123.06;;;-2.64
81399;BMP280;70853;50.074;10.224;2024-01-15T01:12:56;97118.72;;;-2.73
81399;BMP280;70853;50.074;10.224;2024-01-15T01:15:21;97117.06;;;-2.76
81399;BMP280;70853;50.074;10.224;2024-01-15T01:17:47;97116.75;;;-2.57
81399;BMP280;70853;50.074;10.224;2024-01-15T01:20:13;97120.88;;;-2.71
81399;BMP280;70853;50.074;10.224;2024-01-15T01:22:40;97119.22;;;-2.69
81399;BMP280;70853;50.074;10.224;2024-01-15T01:25:06;97122.34;;;-2.64
81399;BMP280;70853;50.074;10.224;2024-01-15T01:27:32;97119.22;;;-2.69
81399;BMP280;70853;50.074;10.224;2024-01-15T01:29:58;97114.34;;;-2.61
81399;BMP280;70853;50.074;10.224;2024-01-15T01:32:24;97124.41;;;-2.48
81399;BMP280;70853;50.074;10.224;2024-01-15T01:34:49;97127.38;;;-2.61
81399;BMP280;70853;50.074;10.224;2024-01-15T01:37:15;97119.03;;;-2.65
81399;BMP280;70853;50.074;10.224;2024-01-15T01:39:41;97122.75;;;-2.77
81399;BMP280;70853;50.074;10.224;2024-01-15T01:42:08;97117.78;;;-2.70
81399;BMP280;70853;50.074;10.224;2024-01-15T01:44:33;97127.22;;;-2.52
81399;BMP280;70853;50.074;10.224;2024-01-15T01:47:00;97128.19;;;-2.49
81399;BMP280;70853;50.074;10.224;2024-01-15T01:49:27;97138.94;;;-2.36
81399;BMP280;70853;50.074;10.224;2024-01-15T01:51:57;97124.00;;;-2.36
81399;BMP280;70853;50.074;10.224;2024-01-15T01:54:22;97127.03;;;-2.43
81399;BMP280;70853;50.074;10.224;2024-01-15T01:56:50;97121.84;;;-2.37
81399;BMP280;70853;50.074;10.224;2024-01-15T01:59:16;97125.75;;;-2.27
81399;BMP280;70853;50.074;10.224;2024-01-15T02:01:43;97120.63;;;-2.42
81399;BMP280;70853;50.074;10.224;2024-01-15T02:04:11;97130.16;;;-2.39
81399;BMP280;70853;50.074;10.224;2024-01-15T02:06:36;97126.31;;;-2.43
81399;BMP280;70853;50.074;10.224;2024-01-15T02:09:03;97116.13;;;-2.41
81399;BMP280;70853;50.074;10.224;2024-01-15T02:11:31;97120.53;;;-2.27
81399;BMP280;70853;50.074;10.224;2024-01-15T02:13:56;97136.34;;;-2.36
81399;BMP280;70853;50.074;10.224;2024-01-15T02:16:22;97129.25;;;-2.30
81399;BMP280;70853;50.074;10.224;2024-01-15T02:18:47;97112.44;;;-2.29
81399;BMP280;70853;50.074;10.224;2024-01-15T02:21:13;97114.06;;;-2.31
81399;BMP280;70853;50.074;10.224;2024-01-15T02:23:38;97113.31;;;-2.38
81399;BMP280;70853;50.074;10.224;2024-01-15T02:26:04;97096.38;;;-2.53
81399;BMP280;70853;50.074;10.224;2024-01-15T02:28:30;97105.19;;;-2.45
81399;BMP280;70853;50.074;10.224;2024-01-15T02:30:57;97108.50;;;-2.45
81399;BMP280;70853;50.074;10.224;2024-01-15T02:33:23;97100.16;;;-2.54
81399;BMP280;70853;50.074;10.224;2024-01-15T02:35:49;97087.09;;;-2.54
81399;BMP280;70853;50.074;10.224;2024-01-15T02:38:17;97082.16;;;-2.52
81399;BMP280;70853;50.074;10.224;2024-01-15T02:40:44;97111.53;;;-2.26
81399;BMP280;70853;50.074;10.224;2024-01-15T02:43:10;97095.28;;;-2.36
81399;BMP280;70853;50.074;10.224;2024-01-15T02:45:35;97108.72;;;-2.17
81399;BMP280;70853;50.074;10.224;2024-01-15T02:48:01;97114.63;;;-2.22
81399;BMP280;70853;50.074;10.224;2024-01-15T02:50:27;97104.44;;;-2.14
81399;BMP280;70853;50.074;10.224;2024-01-15T02:52:52;97109.25;;;-2.39
81399;BMP280;70853;50.074;10.224;2024-01-15T02:55:18;97098.41;;;-2.31
81399;BMP280;70853;50.074;10.224;2024-01-15T02:57:44;97093.97;;;-2.25
81399;BMP280;70853;50.074;10.224;2024-01-15T03:00:10;97092.47;;;-2.32
81399;BMP280;70853;50.074;10.224;2024-01-15T03:02:37;97096.22;;;-2.39
81399;BMP280;70853;50.074;10.224;2024-01-15T03:05:07;97093.63;;;-2.33
81399;BMP280;70853;50.074;10.224;2024-01-15T03:07:33;97093.50;;;-2.18
81399;BMP280;70853;50.074;10.224;2024-01-15T03:09:59;97087.50;;;-2.30
81399;BMP280;70853;50.074;10.224;2024-01-15T03:12:25;97101.06;;;-2.26
81399;BMP280;70853;50.074;10.224;2024-01-15T03:14:50;97100.41;;;-2.21
81399;BMP280;70853;50.074;10.224;2024-01-15T03:17:17;97107.38;;;-2.38
81399;BMP280;70853;50.074;10.224;2024-01-15T03:19:42;97101.53;;;-2.27
81399;BMP280;70853;50.074;10.224;2024-01-15T03:22:08;97094.72;;;-2.14
81399;BMP280;70853;50.074;10.224;2024-01-15T03:24:35;97086.38;;;-2.18
81399;BMP280;70853;50.074;10.224;2024-01-15T03:27:01;97084.00;;;-2.21
81399;BMP280;70853;50.074;10.224;2024-01-15T03:29:27;97088.78;;;-2.20
81399;BMP280;70853;50.074;10.224;2024-01-15T03:31:53;97093.06;;;-2.11
81399;BMP280;70853;50.074;10.224;2024-01-15T03:34:18;97091.19;;;-2.11
81399;BMP280;70853;50.074;10.224;2024-01-15T03:36:44;97092.41;;;-2.01
81399;BMP280;70853;50.074;10.224;2024-01-15T03:39:10;97095.22;;;-2.10
81399;BMP280;70853;50.074;10.224;2024-01-15T03:41:36;97084.81;;;-2.04
81399;BMP280;70853;50.074;10.224;2024-01-15T03:44:01;97088.88;;;-1.97
81399;BMP280;70853;50.074;10.224;2024-01-15T03:46:27;97081.69;;;-2.08
81399;BMP280;70853;50.074;10.224;2024-01-15T03:48:53;97092.63;;;-2.04
81399;BMP280;70853;50.074;10.224;2024-01-15T03:51:19;97088.56;;;-2.11
81399;BMP280;70853;50.074;10.224;2024-01-15T03:53:45;97090.66;;;-2.20
81399;BMP280;70853;50.074;10.224;2024-01-15T03:56:11;97094.22;;;-2.23
81399;BMP280;70853;50.074;10.224;2024-01-15T03:58:36;97097.06;;;-2.21
81399;BMP280;70853;50.074;10.224;2024-01-15T04:01:02;97101.13;;;-2.20
81399;BMP280;70853;50.074;10.224;2024-01-15T04:03:27;97105.84;;;-2.24
81399;BMP280;70853;50.074;10.224;2024-01-15T04:05:53;97096.09;;;-2.24
81399;BMP280;70853;50.074;10.224;2024-01-15T04:08:18;97084.22;;;-2.25
81399;BMP280;70853;50.074;10.224;2024-01-15T04:10:44;97079.41;;;-2.32
81399;BMP280;70853;50.074;10.224;2024-01-15T04:13:09;97079.22;;;-2.28
81399;BMP280;70853;50.074;10.224;2024-01-15T04:15:35;97073.94;;;-2.34
81399;BMP280;70853;50.074;10.224;2024-01-15T04:18:02;97064.44;;;-2.37
81399;BMP280;70853;50.074;10.224;2024-01-15T04:20:28;97073.28;;;-2.29
81399;BMP280;70853;50.074;10.224;2024-01-15T04:22:54;97067.84;;;-2.25
81399;BMP280;70853;50.074;10.224;2024-01-15T04:25:19;97061.91;;;-2.26
81399;BMP280;70853;50.074;10.224;2024-01-15T04:27:45;97062.38;;;-2.27
81399;BMP280;70853;50.074;10.224;2024-01-15T04:30:11;97046.00;;;-2.28
81399;BMP280;70853;50.074;10.224;2024-01-15T04:32:36;97058.84;;;-2.24
81399;BMP280;70853;50.074;10.224;2024-01-15T04:35:02;97055.28;;;-2.21
81399;BMP280;70853;50.074;10.224;2024-01-15T04:37:28;97055.19;;;-2.33
81399;BMP280;70853;50.074;10.224;2024-01-15T04:39:53;97056.13;;;-2.36
81399;BMP280;70853;50.074;10.224;2024-01-15T04:42:23;97060.72;;;-2.25
81399;BMP280;70853;50.074;10.224;2024-01-15T04:44:49;97053.56;;;-2.30
81399;BMP280;70853;50.074;10.224;2024-01-15T04:47:15;97068.59;;;-2.19
81399;BMP280;70853;50.074;10.224;2024-01-15T04:49:40;97069.06;;;-2.21
81399;BMP280;70853;50.074;10.224;2024-01-15T04:52:06;97072.59;;;-2.24
81399;BMP280;70853;50.074;10.224;2024-01-15T04:54:32;97066.00;;;-2.14
81399;BMP280;70853;50.074;10.224;2024-01-15T04:56:58;97066.94;;;-2.17
81399;BMP280;70853;50.074;10.224;2024-01-15T04:59:23;97065.78;;;-2.10
81399;BMP280;70853;50.074;10.224;2024-01-15T05:01:49;97059.09;;;-2.17
81399;BMP280;70853;50.074;10.224;2024-01-15T05:04:15;97054.13;;;-2.20
81399;BMP280;70853;50.074;10.224;2024-01-15T05:06:40;97053.88;;;-2.22
81399;BMP280;70853;50.074;10.224;2024-01-15T05:09:06;97050.56;;;-2.12
81399;BMP280;70853;50.074;10.224;2024-01-15T05:11:32;97039.88;;;-2.14
81399;BMP280;70853;50.074;10.224;2024-01-15T05:13:58;97057.50;;;-2.03
81399;BMP280;70853;50.074;10.224;2024-01-15T05:16:23;97064.63;;;-2.04
81399;BMP280;70853;50.074;10.224;2024-01-15T05:18:49;97059.88;;;-2.05
81399;BMP280;70853;50.074;10.224;2024-01-15T05:21:15;97060.78;;;-2.14
81399;BMP280;70853;50.074;10.224;2024-01-15T05:23:40;97042.72;;;-2.17
81399;BMP280;70853;50.074;10.224;2024-01-15T05:26:06;97068.47;;;-1.93
81399;BMP280;70853;50.074;10.224;2024-01-15T05:28:32;97055.38;;;-1.99
81399;BMP280;70853;50.074;10.224;2024-01-15T05:30:57;97047.03;;;-2.09
81399;BMP280;70853;50.074;10.224;2024-01-15T05:33:23;97031.31;;;-2.14
81399;BMP280;70853;50.074;10.224;2024-01-15T05:35:49;97032.06;;;-2.08
81399;BMP280;70853;50.074;10.224;2024-01-15T05:38:16;97041.78;;;-2.20
81399;BMP280;70853;50.074;10.224;2024-01-15T05:40:42;97041.59;;;-2.05
81399;BMP280;70853;50.074;10.224;2024-01-15T05:43:07;97042.72;;;-2.12
81399;BMP280;70853;50.074;10.224;2024-01-15T05:45:34;97049.63;;;-2.09
81399;BMP280;70853;50.074;10.224;2024-01-15T05:48:00;97049.91;;;-2.01
81399;BMP280;70853;50.074;10.224;2024-01-15T05:50:25;97052.53;;;-2.01
81399;BMP280;70853;50.074;10.224;2024-01-15T05:52:50;97037.78;;;-2.04
81399;BMP280;70853;50.074;10.224;2024-01-15T05:55:17;97043.03;;;-1.98
81399;BMP280;70853;50.074;10.224;2024-01-15T05:57:44;97053.25;;;-1.95
81399;BMP280;70853;50.074;10.224;2024-01-15T06:00:10;97042.28;;;-2.05
81399;BMP280;70853;50.074;10.224;2024-01-15T06:02:37;97036.63;;;-1.97
81399;BMP280;70853;50.074;10.224;2024-01-15T06:05:04;97022.16;;;-1.98
81399;BMP280;70853;50.074;10.224;2024-01-15T06:07:30;97049.47;;;-1.94
81399;BMP280;70853;50.074;10.224;2024-01-15T06:09:56;97053.72;;;-1.96
81399;BMP280;70853;50.074;10.224;2024-01-15T06:12:22;97052.78;;;-1.93
81399;BMP280;70853;50.074;10.224;2024-01-15T06:14:48;97041.69;;;-1.83
81399;BMP280;70853;50.074;10.224;2024-01-15T06:17:14;97029.81;;;-1.84
81399;BMP280;70853;50.074;10.224;2024-01-15T06:19:39;97040.28;;;-1.78
81399;BMP280;70853;50.074;10.224;2024-01-15T06:22:05;97043.81;;;-1.81
81399;BMP280;70853;50.074;10.224;2024-01-15T06:24:30;97024.28;;;-1.91
81399;BMP280;70853;50.074;10.224;2024-01-15T06:26:56;97037.16;;;-1.82
81399;BMP280;70853;50.074;10.224;2024-01-15T06:29:21;97034.81;;;-1.75
81399;BMP280;70853;50.074;10.224;2024-01-15T06:31:47;97039.09;;;-1.77
81399;BMP280;70853;50.074;10.224;2024-01-15T06:34:12;97047.44;;;-1.73
81399;BMP280;70853;50.074;10.224;2024-01-15T06:36:38;97051.22;;;-1.74
81399;BMP280;70853;50.074;10.224;2024-01-15T06:39:03;97049.59;;;-1.66
81399;BMP280;70853;50.074;10.224;2024-01-15T06:41:29;97036.03;;;-1.70
81399;BMP280;70853;50.074;10.224;2024-01-15T06:43:54;97046.72;;;-1.68
81399;BMP280;70853;50.074;10.224;2024-01-15T06:46:22;97034.81;;;-1.75
81399;BMP280;70853;50.074;10.224;2024-01-15T06:48:48;97048.88;;;-1.55
81399;BMP280;70853;50.074;10.224;2024-01-15T06:51:13;97042.19;;;-1.73
81399;BMP280;70853;50.074;10.224;2024-01-15T06:53:39;97052.84;;;-1.82
81399;BMP280;70853;50.074;10.224;2024-01-15T06:56:05;97037.69;;;-1.67
81399;BMP280;70853;50.074;10.224;2024-01-15T06:58:31;97040.09;;;-1.58
81399;BMP280;70853;50.074;10.224;2024-01-15T07:00:56;97042.44;;;-1.60
81399;BMP280;70853;50.074;10.224;2024-01-15T07:03:23;97049.38;;;-1.51
81399;BMP280;70853;50.074;10.224;2024-01-15T07:05:49;97046.00;;;-1.63
81399;BMP280;70853;50.074;10.224;2024-01-15T07:08:14;97048.63;;;-1.69
81399;BMP280;70853;50.074;10.224;2024-01-15T07:10:40;97049.09;;;-1.59
81399;BMP280;70853;50.074;10.224;2024-01-15T07:13:06;97046.50;;;-1.59
81399;BMP280;70853;50.074;10.224;2024-01-15T07:15:32;97045.31;;;-1.58
81399;BMP280;70853;50.074;10.224;2024-01-15T07:17:58;97039.84;;;-1.54
81399;BMP280;70853;50.074;10.224;2024-01-15T07:20:24;97052.47;;;-1.47
81399;BMP280;70853;50.074;10.224;2024-01-15T07:22:49;97048.88;;;-1.55
81399;BMP280;70853;50.074;10.224;2024-01-15T07:25:15;97052.41;;;-1.64
81399;BMP280;70853;50.074;10.224;2024-01-15T07:27:41;97049.84;;;-1.53
81399;BMP280;70853;50.074;10.224;2024-01-15T07:30:11;97053.84;;;-1.63
81399;BMP280;70853;50.074;10.224;2024-01-15T07:32:37;97055.06;;;-1.58
81399;BMP280;70853;50.074;10.224;2024-01-15T07:35:03;97064.59;;;-1.44
81399;BMP280;70853;50.074;10.224;2024-01-15T07:37:29;97051.97;;;-1.51
81399;BMP280;70853;50.074;10.224;2024-01-15T07:39:54;97064.84;;;-1.42
81399;BMP280;70853;50.074;10.224;2024-01-15T07:42:20;97065.28;;;-1.55
81399;BMP280;70853;50.074;10.224;2024-01-15T07:44:45;97075.00;;;-1.61
81399;BMP280;70853;50.074;10.224;2024-01-15T07:47:12;97071.69;;;-1.61
81399;BMP280;70853;50.074;10.224;2024-01-15T07:49:37;97074.75;;;-1.63
81399;BMP280;70853;50.074;10.224;2024-01-15T07:52:03;97074.75;;;-1.63
81399;BMP280;70853;50.074;10.224;2024-01-15T07:54:31;97067.88;;;-1.66
81399;BMP280;70853;50.074;10.224;2024-01-15T07:56:58;97070.97;;;-1.62
81399;BMP280;70853;50.074;10.224;2024-01-15T07:59:24;97077.88;;;-1.59
81399;BMP280;70853;50.074;10.224;2024-01-15T08:01:51;97078.38;;;-1.49
81399;BMP280;70853;50.074;10.224;2024-01-15T08:04:17;97073.66;;;-1.40
81399;BMP280;70853;50.074;10.224;2024-01-15T08:06:42;97068.63;;;-1.49
81399;BMP280;70853;50.074;10.224;2024-01-15T08:09:08;97067.00;;;-1.41
81399;BMP280;70853;50.074;10.224;2024-01-15T08:11:34;97058.91;;;-1.37
81399;BMP280;70853;50.074;10.224;2024-01-15T08:14:00;97057.69;;;-1.36
81399;BMP280;70853;50.074;10.224;2024-01-15T08:16:26;97055.84;;;-1.24
81399;BMP280;70853;50.074;10.224;2024-01-15T08:18:53;97060.31;;;-1.36
81399;BMP280;70853;50.074;10.224;2024-01-15T08:21:19;97051.34;;;-1.29
81399;BMP280;70853;50.074;10.224;2024-01-15T08:23:45;97042.25;;;-1.34
81399;BMP280;70853;50.074;10.224;2024-01-15T08:26:11;97048.00;;;-1.30
81399;BMP280;70853;50.074;10.224;2024-01-15T08:28:37;97036.81;;;-1.30
81399;BMP280;70853;50.074;10.224;2024-01-15T08:31:02;97039.69;;;-1.28
81399;BMP280;70853;50.074;10.224;2024-01-15T08:33:28;97028.72;;;-1.44
81399;BMP280;70853;50.074;10.224;2024-01-15T08:35:54;97034.69;;;-1.32
81399;BMP280;70853;50.074;10.224;2024-01-15T08:38:20;97036.13;;;-1.25
81399;BMP280;70853;50.074;10.224;2024-01-15T08:40:46;97031.84;;;-1.28
81399;BMP280;70853;50.074;10.224;2024-01-15T08:43:13;97032.09;;;-1.26
81399;BMP280;70853;50.074;10.224;2024-01-15T08:45:39;97038.97;;;-1.29
81399;BMP280;70853;50.074;10.224;2024-01-15T08:48:05;97030.41;;;-1.29
81399;BMP280;70853;50.074;10.224;2024-01-15T08:50:32;97033.69;;;-1.35
81399;BMP280;70853;50.074;10.224;2024-01-15T08:52:58;97047.06;;;-1.27
81399;BMP280;70853;50.074;10.224;2024-01-15T08:55:24;97049.19;;;-1.31
81399;BMP280;70853;50.074;10.224;2024-01-15T08:57:50;97052.00;;;-1.35
81399;BMP280;70853;50.074;10.224;2024-01-15T09:00:16;97049.38;;;-1.35
81399;BMP280;70853;50.074;10.224;2024-01-15T09:02:42;97036.31;;;-1.40
81399;BMP280;70853;50.074;10.224;2024-01-15T09:05:08;97034.41;;;-1.34
81399;BMP280;70853;50.074;10.224;2024-01-15T09:07:34;97048.91;;;-1.44
81399;BMP280;70853;50.074;10.224;2024-01-15T09:09:59;97038.94;;;-1.35
81399;BMP280;70853;50.074;10.224;2024-01-15T09:12:25;97039.91;;;-1.32
81399;BMP280;70853;50.074;10.224;2024-01-15T09:14:51;97035.88;;;-1.22
81399;BMP280;70853;50.074;10.224;2024-01-15T09:17:20;97042.81;;;-1.13
81399;BMP280;70853;50.074;10.224;2024-01-15T09:19:45;97033.03;;;-1.07
81399;BMP280;70853;50.074;10.224;2024-01-15T09:22:12;97041.13;;;-1.05
81399;BMP280;70853;50.074;10.224;2024-01-15T09:24:42;97040.88;;;-1.07
81399;BMP280;70853;50.074;10.224;2024-01-15T09:27:08;97044.22;;;-1.12
81399;BMP280;70853;50.074;10.224;2024-01-15T09:29:33;97052.31;;;-1.10
81399;BMP280;70853;50.074;10.224;2024-01-15T09:32:02;97053.97;;;-1.07
81399;BMP280;70853;50.074;10.224;2024-01-15T09:34:28;97060.63;;;-1.06
81399;BMP280;70853;50.074;10.224;2024-01-15T09:36:54;97048.50;;;-1.15
81399;BMP280;70853;50.074;10.224;2024-01-15T09:39:20;97037.53;;;-1.08
81399;BMP280;70853;50.074;10.224;2024-01-15T09:41:47;97039.94;;;-0.98
81399;BMP280;70853;50.074;10.224;2024-01-15T09:44:13;97042.78;;;-1.02
81399;BMP280;70853;50.074;10.224;2024-01-15T09:46:39;97037.56;;;-0.96
81399;BMP280;70853;50.074;10.224;2024-01-15T09:49:06;97039.69;;;-0.89
81399;BMP280;70853;50.074;10.224;2024-01-15T09:51:32;97038.03;;;-0.98
81399;BMP280;70853;50.074;10.224;2024-01-15T09:53:58;97029.47;;;-1.04
81399;BMP280;70853;50.074;10.224;2024-01-15T09:56:24;97025.91;;;-0.90
81399;BMP280;70853;50.074;10.224;2024-01-15T09:58:50;97021.63;;;-0.93
81399;BMP280;70853;50.074;10.224;2024-01-15T10:01:22;97018.28;;;-0.82
81399;BMP280;70853;50.074;10.224;2024-01-15T10:03:48;97027.78;;;-0.74
81399;BMP280;70853;50.074;10.224;2024-01-15T10:06:16;97019.00;;;-0.87
81399;BMP280;70853;50.074;10.224;2024-01-15T10:08:51;97024.44;;;-0.69
81399;BMP280;70853;50.074;10.224;2024-01-15T10:11:17;97022.31;;;-0.76
81399;BMP280;70853;50.074;10.224;2024-01-15T10:13:49;97007.31;;;-0.81
81399;BMP280;70853;50.074;10.224;2024-01-15T10:16:19;97002.09;;;-0.75
81399;BMP280;70853;50.074;10.224;2024-01-15T10:18:45;96998.94;;;-0.46
81399;BMP280;70853;50.074;10.224;2024-01-15T10:21:10;97003.22;;;-0.48
81399;BMP280;70853;50.074;10.224;2024-01-15T10:23:36;97001.28;;;-0.37
81399;BMP280;70853;50.074;10.224;2024-01-15T10:26:02;97001.53;;;-0.29
81399;BMP280;70853;50.074;10.224;2024-01-15T10:28:29;96996.75;;;-0.25
81399;BMP280;70853;50.074;10.224;2024-01-15T10:30:58;96993.84;;;-0.16
81399;BMP280;70853;50.074;10.224;2024-01-15T10:33:27;96989.88;;;-0.28
81399;BMP280;70853;50.074;10.224;2024-01-15T10:35:58;96992.25;;;-0.41
81399;BMP280;70853;50.074;10.224;2024-01-15T10:38:24;96975.63;;;-0.55
81399;BMP280;70853;50.074;10.224;2024-01-15T10:40:51;96991.78;;;-0.40
81399;BMP280;70853;50.074;10.224;2024-01-15T10:43:17;96976.31;;;-0.43
81399;BMP280;70853;50.074;10.224;2024-01-15T10:45:46;96969.88;;;-0.31
81399;BMP280;70853;50.074;10.224;2024-01-15T10:48:13;96984.88;;;-0.31
81399;BMP280;70853;50.074;10.224;2024-01-15T10:50:39;96983.00;;;-0.53
81399;BMP280;70853;50.074;10.224;2024-01-15T10:53:05;96964.38;;;-0.39
81399;BMP280;70853;50.074;10.224;2024-01-15T10:55:31;96959.38;;;-0.37
81399;BMP280;70853;50.074;10.224;2024-01-15T10:57:59;96955.81;;;-0.34
81399;BMP280;70853;50.074;10.224;2024-01-15T11:00:26;96951.00;;;-0.24
81399;BMP280;70853;50.074;10.224;2024-01-15T11:02:52;96959.63;;;-0.29
81399;BMP280;70853;50.074;10.224;2024-01-15T11:05:23;96966.72;;;-0.24
81399;BMP280;70853;50.074;10.224;2024-01-15T11:07:50;96961.06;;;-0.28
81399;BMP280;70853;50.074;10.224;2024-01-15T11:13:03;96952.72;;;-0.32
81399;BMP280;70853;50.074;10.224;2024-01-15T11:15:30;96948.44;;;-0.29
81399;BMP280;70853;50.074;10.224;2024-01-15T11:18:01;96941.06;;;-0.31
81399;BMP280;70853;50.074;10.224;2024-01-15T11:20:27;96937.19;;;-0.19
81399;BMP280;70853;50.074;10.224;2024-01-15T11:22:52;96933.31;;;-0.07
81399;BMP280;70853;50.074;10.224;2024-01-15T11:25:19;96929.78;;;-0.15
81399;BMP280;70853;50.074;10.224;2024-01-15T11:27:50;96937.13;;;-0.08
81399;BMP280;70853;50.074;10.224;2024-01-15T11:30:24;96942.94;;;0.15
81399;BMP280;70853;50.074;10.224;2024-01-15T11:32:50;96931.75;;;0.15
81399;BMP280;70853;50.074;10.224;2024-01-15T11:35:16;96929.28;;;0.28
81399;BMP280;70853;50.074;10.224;2024-01-15T11:42:58;96933.94;;;0.71
81399;BMP280;70853;50.074;10.224;2024-01-15T11:45:24;96931.25;;;0.52
81399;BMP280;70853;50.074;10.224;2024-01-15T11:50:15;96941.84;;;0.35
81399;BMP280;70853;50.074;10.224;2024-01-15T11:52:43;96936.06;;;0.42
81399;BMP280;70853;50.074;10.224;2024-01-15T11:55:38;96922.72;;;0.40
81399;BMP280;70853;50.074;10.224;2024-01-15T11:58:09;96928.47;;;0.39
81399;BMP280;70853;50.074;10.224;2024-01-15T12:00:46;96913.63;;;0.47
81399;BMP280;70853;50.074;10.224;2024-01-15T12:03:12;96906.75;;;0.44
81399;BMP280;70853;50.074;10.224;2024-01-15T12:05:40;96912.06;;;0.62
81399;BMP280;70853;50.074;10.224;2024-01-15T12:08:07;96913.28;;;0.86
81399;BMP280;70853;50.074;10.224;2024-01-15T12:10:40;96923.22;;;0.68
81399;BMP280;70853;50.074;10.224;2024-01-15T12:13:14;96917.22;;;0.98
81399;BMP280;70853;50.074;10.224;2024-01-15T12:15:42;96909.91;;;0.91
81399;BMP280;70853;50.074;10.224;2024-01-15T12:18:09;96911.31;;;1.16
81399;BMP280;70853;50.074;10.224;2024-01-15T12:20:35;96908.84;;;1.24
81399;BMP280;70853;50.074;10.224;2024-01-15T12:23:02;96913.34;;;1.29
81399;BMP280;70853;50.074;10.224;2024-01-15T12:25:32;96913.44;;;1.18
81399;BMP280;70853;50.074;10.224;2024-01-15T12:27:59;96919.13;;;1.41
81399;BMP280;70853;50.074;10.224;2024-01-15T12:30:26;96905.25;;;1.27
81399;BMP280;70853;50.074;10.224;2024-01-15T12:32:52;96907.91;;;1.40
81399;BMP280;70853;50.074;10.224;2024-01-15T12:35:18;96910.50;;;1.27
81399;BMP280;70853;50.074;10.224;2024-01-15T12:37:44;96913.13;;;1.64
81399;BMP280;70853;50.074;10.224;2024-01-15T12:40:11;96908.41;;;1.38
81399;BMP280;70853;50.074;10.224;2024-01-15T12:42:37;96919.78;;;1.47
81399;BMP280;70853;50.074;10.224;2024-01-15T12:45:05;96917.59;;;1.32
81399;BMP280;70853;50.074;10.224;2024-01-15T12:47:31;96917.00;;;1.20
81399;BMP280;70853;50.074;10.224;2024-01-15T12:49:58;96914.69;;;1.11
81399;BMP280;70853;50.074;10.224;2024-01-15T12:52:28;96897.59;;;1.05
81399;BMP280;70853;50.074;10.224;2024-01-15T12:54:54;96900.69;;;1.27
81399;BMP280;70853;50.074;10.224;2024-01-15T12:57:20;96887.31;;;1.07
81399;BMP280;70853;50.074;10.224;2024-01-15T12:59:46;96890.03;;;1.20
81399;BMP280;70853;50.074;10.224;2024-01-15T13:02:15;96902.00;;;1.15
81399;BMP280;70853;50.074;10.224;2024-01-15T13:04:42;96899.53;;;1.04
81399;BMP280;70853;50.074;10.224;2024-01-15T13:07:08;96893.66;;;1.17
81399;BMP280;70853;50.074;10.224;2024-01-15T13:09:33;96899.75;;;1.06
81399;BMP280;70853;50.074;10.224;2024-01-15T13:12:00;96898.31;;;0.81
81399;BMP280;70853;50.074;10.224;2024-01-15T13:14:26;96898.50;;;0.83
81399;BMP280;70853;50.074;10.224;2024-01-15T13:16:52;96900.16;;;0.86
81399;BMP280;70853;50.074;10.224;2024-01-15T13:19:19;96898.59;;;0.77
81399;BMP280;70853;50.074;10.224;2024-01-15T13:21:46;96882.88;;;0.72
81399;BMP280;70853;50.074;10.224;2024-01-15T13:24:11;96884.41;;;0.61
81399;BMP280;70853;50.074;10.224;2024-01-15T13:26:37;96894.19;;;0.61
81399;BMP280;70853;50.074;10.224;2024-01-15T13:29:03;96887.28;;;0.58
81399;BMP280;70853;50.074;10.224;2024-01-15T13:31:30;96888.44;;;0.62
81399;BMP280;70853;50.074;10.224;2024-01-15T13:33:56;96897.53;;;0.61
81399;BMP280;70853;50.074;10.224;2024-01-15T13:36:25;96894.44;;;0.57
81399;BMP280;70853;50.074;10.224;2024-01-15T13:38:51;96891.59;;;0.55
81399;BMP280;70853;50.074;10.224;2024-01-15T13:41:17;96896.50;;;0.70
81399;BMP280;70853;50.074;10.224;2024-01-15T13:44:01;96900.81;;;0.67
81399;BMP280;70853;50.074;10.224;2024-01-15T13:46:26;96900.91;;;0.56
81399;BMP280;70853;50.074;10.224;2024-01-15T13:48:52;96907.41;;;0.50
81399;BMP280;70853;50.074;10.224;2024-01-15T13:51:18;96910.59;;;0.37
81399;BMP280;70853;50.074;10.224;2024-01-15T13:53:45;96907.75;;;0.35
81399;BMP280;70853;50.074;10.224;2024-01-15T13:56:10;96912.91;;;0.16
81399;BMP280;70853;50.074;10.224;2024-01-15T13:58:36;96911.38;;;-0.04
81399;BMP280;70853;50.074;10.224;2024-01-15T14:01:02;96918.75;;;-0.02
81399;BMP280;70853;50.074;10.224;2024-01-15T14:03:29;96931.09;;;0.03
81399;BMP280;70853;50.074;10.224;2024-01-15T14:05:55;96913.91;;;-0.28